Time;durP1;ratioP1;P1;durP2;ratioP2;P2;SDS_P1;SDS_P2;PMS_P1;PMS_P2;Temp;Humidity;BMP_temperature;BMP_pressure;BME280_temperature;BME280_humidity;BME280_pressure;Samples;Min_cycle;Max_cycle;Signal;HPM_P1;HPM_P2
2022/03/21 13:33:00;;;;;;;14.68;11.85;;;;;;;7.48;32.71;95740.80;827945;71;32878;-76
2022/03/21 13:34:09;;;;;;;15.20;12.33;;;;;;;7.49;32.53;95738.98;809040;73;26229;-77
2022/03/21 13:37:21;;;;;;;20.32;12.70;;;;;;;7.68;32.42;95749.97;789822;73;26268;-77
2022/03/21 13:38:25;;;;;;;15.13;11.70;;;;;;;7.90;32.30;95744.82;822588;71;26490;-76
2022/03/21 13:39:32;;;;;;;18.10;12.10;;;;;;;8.01;32.07;95740.03;820471;72;26303;-76
2022/03/21 13:40:46;;;;;;;15.65;11.85;;;;;;;8.13;31.96;95741.21;827530;71;26221;-76
2022/03/21 13:49:53;;;;;;;14.53;11.48;;;;;;;8.30;31.02;95738.06;748405;79;26276;-77
2022/03/21 13:51:03;;;;;;;13.80;11.55;;;;;;;8.23;31.37;95750.00;762241;78;26264;-75
2022/03/21 13:52:07;;;;;;;12.78;10.75;;;;;;;8.19;31.47;95744.98;762263;77;26689;-75
2022/03/21 13:53:29;;;;;;;13.30;11.33;;;;;;;8.22;31.50;95744.48;759738;78;26740;-75
2022/03/21 13:58:36;;;;;;;16.90;10.90;;;;;;;8.37;31.18;95744.41;779227;75;26715;-76
2022/03/21 13:59:40;;;;;;;13.13;11.48;;;;;;;8.48;31.14;95748.78;780360;76;26267;-75
2022/03/21 14:00:47;;;;;;;14.58;11.40;;;;;;;8.52;31.01;95740.72;780399;76;26729;-75
2022/03/21 14:01:52;;;;;;;14.03;11.63;;;;;;;8.60;31.00;95735.06;780225;76;26251;-76
2022/03/21 14:03:00;;;;;;;14.58;11.40;;;;;;;8.70;30.92;95735.70;780341;76;26313;-76
2022/03/21 14:06:08;;;;;;;18.42;11.80;;;;;;;8.52;30.36;95753.02;791136;71;26297;-75
2022/03/21 14:07:13;;;;;;;12.10;10.50;;;;;;;8.20;30.58;95734.78;797267;74;26232;-75
2022/03/21 14:08:23;;;;;;;12.95;11.12;;;;;;;8.00;30.59;95749.67;797800;73;26229;-74
2022/03/21 14:09:28;;;;;;;19.67;11.53;;;;;;;7.90;30.83;95739.59;807941;72;26319;-75
2022/03/21 14:10:35;;;;;;;11.83;10.58;;;;;;;7.80;30.95;95731.09;803822;74;26230;-75
2022/03/21 14:11:40;;;;;;;14.13;11.30;;;;;;;7.81;31.03;95743.13;803747;74;26217;-77
2022/03/21 14:12:53;;;;;;;13.88;11.63;;;;;;;7.79;31.14;95730.83;803219;73;26304;-76
2022/03/21 14:18:10;;;;;;;16.27;12.05;;;;;;;7.73;32.12;95752.16;800783;72;26206;-76
2022/03/21 14:19:20;;;;;;;16.35;11.85;;;;;;;7.63;32.38;95739.72;799500;74;26222;-75
2022/03/21 14:20:28;;;;;;;17.15;13.00;;;;;;;7.59;32.47;95745.66;799027;74;26258;-76
2022/03/21 14:21:31;;;;;;;18.52;12.40;;;;;;;7.61;32.58;95742.30;799469;73;26307;-77
2022/03/21 14:22:37;;;;;;;15.15;12.20;;;;;;;7.68;32.64;95737.69;801574;73;26223;-76
2022/03/21 14:27:22;;;;;;;14.25;12.33;;;;;;;8.07;31.92;95727.80;759328;78;26362;-76
2022/03/21 14:28:26;;;;;;;16.10;12.45;;;;;;;8.05;31.98;95737.70;763388;77;26323;-76
2022/03/21 14:29:32;;;;;;;13.70;11.63;;;;;;;8.07;32.05;95736.45;763497;78;26658;-77
2022/03/21 14:30:38;;;;;;;15.48;11.88;;;;;;;8.02;31.61;95735.84;763520;78;26324;-75
2022/03/21 14:38:57;;;;;;;16.55;12.63;;;;;;;7.60;31.87;95728.45;796447;73;26179;-77
2022/03/21 14:40:13;;;;;;;16.00;11.50;;;;;;;7.50;32.07;95733.52;796599;74;26746;-76
2022/03/21 14:41:38;;;;;;;13.62;11.15;;;;;;;7.51;32.01;95718.11;795633;74;26235;-77
2022/03/21 14:43:03;;;;;;;12.68;10.60;;;;;;;7.58;32.07;95718.77;794879;74;26332;-75
2022/03/21 14:49:38;;;;;;;12.23;10.60;;;;;;;7.55;31.79;95727.06;777001;76;26268;-75
2022/03/21 14:50:47;;;;;;;16.17;11.30;;;;;;;7.48;31.94;95724.32;776061;76;26252;-75
2022/03/21 14:51:51;;;;;;;15.72;11.85;;;;;;;7.49;32.04;95732.45;775850;76;26310;-77
2022/03/21 14:52:58;;;;;;;13.20;11.57;;;;;;;7.53;32.19;95723.89;775917;76;26326;-77
2022/03/21 14:58:24;;;;;;;14.35;11.25;;;;;;;7.67;32.33;95738.73;762174;76;26267;-77
2022/03/21 14:59:34;;;;;;;14.95;11.95;;;;;;;7.67;32.42;95717.06;777378;76;26693;-76
2022/03/21 15:00:35;;;;;;;16.73;11.68;;;;;;;7.72;32.51;95724.95;787858;75;26660;-75
2022/03/21 15:01:43;;;;;;;15.95;11.83;;;;;;;7.74;32.46;95722.38;786700;75;26717;-76
2022/03/21 15:02:51;;;;;;;16.10;12.30;;;;;;;7.76;32.37;95720.31;786748;75;26296;-77
2022/03/21 15:06:46;;;;;;;16.82;11.28;;;;;;;7.84;32.42;95729.58;787686;75;26167;-77
2022/03/21 15:07:52;;;;;;;15.58;11.40;;;;;;;7.97;32.32;95719.33;773224;76;26233;-75
2022/03/21 15:08:56;;;;;;;14.18;11.53;;;;;;;7.90;31.90;95722.61;789166;75;26708;-75
2022/03/21 15:10:22;;;;;;;14.25;11.60;;;;;;;7.85;31.99;95722.03;789293;75;26312;-76
2022/03/21 15:11:28;;;;;;;13.15;11.35;;;;;;;7.84;32.08;95721.73;789193;75;26235;-77
2022/03/21 15:12:44;;;;;;;15.08;12.10;;;;;;;7.82;32.12;95735.03;789225;75;26277;-76
2022/03/21 15:17:12;;;;;;;15.78;12.20;;;;;;;7.60;32.25;95738.91;777760;75;26259;-77
2022/03/21 15:18:21;;;;;;;13.95;11.83;;;;;;;7.45;32.49;95737.34;769431;77;26711;-74
2022/03/21 15:19:31;;;;;;;14.35;11.60;;;;;;;7.34;32.59;95732.97;770429;77;26261;-76
2022/03/21 15:20:37;;;;;;;17.23;13.13;;;;;;;7.23;32.56;95727.58;770491;77;26246;-77
2022/03/21 15:23:38;;;;;;;12.03;10.65;;;;;;;7.17;32.89;95727.22;774724;73;26253;-78
2022/03/21 15:24:44;;;;;;;12.43;10.30;;;;;;;7.25;33.04;95731.27;777594;75;26237;-78
2022/03/21 15:25:51;;;;;;;14.95;10.55;;;;;;;7.33;32.97;95734.80;777233;76;26245;-77
2022/03/21 15:26:57;;;;;;;14.33;11.48;;;;;;;7.38;32.87;95733.59;764149;77;26256;-76
2022/03/21 15:28:01;;;;;;;13.43;11.30;;;;;;;7.44;32.79;95731.86;764372;77;24322;-77
2022/03/21 15:29:07;;;;;;;14.70;12.15;;;;;;;7.51;32.77;95730.39;764401;77;26201;-75
2022/03/21 15:30:22;;;;;;;13.22;11.73;;;;;;;7.54;32.77;95734.63;777819;76;26237;-75
2022/03/21 15:31:24;;;;;;;15.43;12.23;;;;;;;7.57;32.75;95728.13;776350;76;26327;-75
2022/03/21 15:32:29;;;;;;;15.78;12.47;;;;;;;7.59;32.79;95730.78;777477;75;26245;-75
2022/03/21 15:42:22;;;;;;;16.12;12.60;;;;;;;7.49;33.13;95733.23;776405;76;26762;-75
2022/03/21 15:44:59;;;;;;;16.05;12.68;;;;;;;7.38;33.21;95741.42;773301;74;26394;-75
2022/03/21 15:46:06;;;;;;;15.98;12.63;;;;;;;7.28;33.25;95737.34;773691;76;26245;-77
2022/03/21 15:47:13;;;;;;;16.48;13.22;;;;;;;7.21;33.31;95742.69;770788;76;26709;-76
2022/03/21 15:48:20;;;;;;;19.32;13.72;;;;;;;7.15;33.34;95750.67;773706;76;26326;-76
2022/03/21 15:49:29;;;;;;;15.20;12.33;;;;;;;7.10;33.39;95740.16;770371;76;26238;-76
2022/03/21 15:50:34;;;;;;;17.05;13.22;;;;;;;7.07;33.54;95741.39;773718;76;26713;-76
2022/03/21 15:51:43;;;;;;;16.48;13.08;;;;;;;7.08;33.58;95753.43;762964;78;26356;-77
2022/03/21 15:56:30;;;;;;;18.73;13.08;;;;;;;7.00;33.69;95739.45;773934;76;26307;-75
2022/03/21 15:57:34;;;;;;;17.15;13.10;;;;;;;6.96;33.83;95740.95;751050;76;26718;-75
2022/03/21 15:58:42;;;;;;;20.88;13.55;;;;;;;6.96;33.92;95746.95;778702;76;26235;-76
2022/03/21 16:00:08;;;;;;;19.50;13.55;;;;;;;6.99;33.98;95746.98;778450;76;26220;-75
2022/03/21 16:01:17;;;;;;;20.68;14.23;;;;;;;6.98;34.11;95750.12;778382;76;26289;-76
2022/03/21 16:04:46;;;;;;;17.90;13.72;;;;;;;6.97;34.20;95749.83;778859;76;26245;-76
2022/03/21 16:05:51;;;;;;;21.40;14.90;;;;;;;6.96;34.33;95753.47;774992;76;26300;-73
2022/03/21 16:06:59;;;;;;;20.00;14.00;;;;;;;6.96;34.34;95750.08;785493;75;26216;-75
2022/03/21 16:08:07;;;;;;;19.27;14.50;;;;;;;6.96;34.44;95753.99;783651;75;26677;-75
2022/03/21 16:09:12;;;;;;;19.85;14.68;;;;;;;6.94;34.40;95750.83;785495;75;26274;-75
2022/03/21 16:10:19;;;;;;;17.12;13.60;;;;;;;6.86;34.27;95745.45;785527;75;26223;-75
2022/03/21 16:16:16;;;;;;;18.02;14.00;;;;;;;6.63;34.84;95751.55;803245;71;26153;-77
2022/03/21 16:17:22;;;;;;;18.45;13.62;;;;;;;6.60;34.86;95746.27;803167;73;26216;-75
2022/03/21 16:18:28;;;;;;;17.60;13.50;;;;;;;6.59;34.88;95745.21;803792;73;26682;-74
2022/03/21 16:19:34;;;;;;;15.32;12.68;;;;;;;6.57;34.93;95749.34;805409;73;26230;-76
2022/03/21 16:20:46;;;;;;;15.55;12.65;;;;;;;6.56;34.69;95748.27;801859;74;26711;-75
2022/03/21 16:21:51;;;;;;;19.55;13.10;;;;;;;6.54;34.67;95761.53;801906;73;26709;-75
2022/03/21 16:24:38;;;;;;;17.82;12.60;;;;;;;6.49;34.45;95742.38;784381;74;26674;-75
2022/03/21 16:25:46;;;;;;;14.73;11.73;;;;;;;6.46;34.37;95751.45;795965;74;26218;-74
2022/03/21 16:27:00;;;;;;;16.15;12.70;;;;;;;6.46;34.44;95754.06;795930;74;26760;-74
2022/03/21 16:28:07;;;;;;;15.98;12.95;;;;;;;6.48;34.50;95761.66;795956;74;26713;-75
2022/03/21 16:29:22;;;;;;;14.75;11.53;;;;;;;6.50;34.56;95754.41;796857;74;26218;-76
2022/03/21 16:30:27;;;;;;;16.05;12.40;;;;;;;6.49;34.42;95755.41;796097;74;26211;-75
2022/03/21 16:31:35;;;;;;;15.10;11.15;;;;;;;6.49;34.32;95751.02;795807;74;26729;-76
2022/03/21 16:35:14;;;;;;;14.70;11.20;;;;;;;6.53;34.31;95761.75;794371;75;26662;-75
2022/03/21 16:36:19;;;;;;;20.68;12.60;;;;;;;6.50;34.34;95756.49;795358;74;26214;-75
2022/03/21 16:37:25;;;;;;;16.70;12.75;;;;;;;6.47;34.34;95763.48;787849;75;26296;-75
2022/03/21 16:38:37;;;;;;;16.87;11.30;;;;;;;6.44;34.45;95764.45;789083;75;26320;-76
2022/03/21 16:39:48;;;;;;;16.52;12.70;;;;;;;6.40;34.56;95771.41;780108;75;26323;-75
2022/03/21 16:40:55;;;;;;;16.02;12.35;;;;;;;6.40;34.51;95766.19;803108;74;24283;-76
2022/03/21 16:46:18;;;;;;;17.15;12.78;;;;;;;6.33;34.97;95766.84;781247;75;26232;-74
2022/03/21 16:47:31;;;;;;;17.87;13.32;;;;;;;6.30;35.03;95765.20;782558;76;26235;-75
2022/03/21 16:48:35;;;;;;;15.98;13.10;;;;;;;6.29;35.07;95767.02;782314;76;26200;-75
2022/03/21 16:49:42;;;;;;;17.85;12.75;;;;;;;6.26;34.96;95762.77;783884;76;26286;-75
2022/03/21 16:50:49;;;;;;;17.45;13.85;;;;;;;6.24;35.09;95759.08;784698;76;26239;-76
2022/03/21 16:56:06;;;;;;;19.10;13.10;;;;;;;6.22;35.31;95759.81;830504;70;26656;-76
2022/03/21 16:57:14;;;;;;;20.02;14.23;;;;;;;6.25;35.55;95762.50;816324;72;26217;-78
2022/03/21 16:58:20;;;;;;;20.55;14.20;;;;;;;6.27;35.62;95765.67;817036;72;26307;-74
2022/03/21 16:59:26;;;;;;;21.50;14.85;;;;;;;6.27;35.56;95765.16;816591;72;26380;-74
2022/03/21 17:06:18;;;;;;;23.87;14.30;;;;;;;6.26;35.43;95771.37;817423;72;26280;-76
2022/03/21 17:07:26;;;;;;;18.37;13.95;;;;;;;6.26;35.46;95767.98;815435;72;26216;-74
2022/03/21 17:08:33;;;;;;;17.07;13.85;;;;;;;6.24;35.50;95769.50;814743;73;26658;-75
2022/03/21 17:09:39;;;;;;;16.45;13.95;;;;;;;6.22;35.47;95774.16;814768;73;26200;-76
2022/03/21 17:10:43;;;;;;;18.80;13.50;;;;;;;6.24;35.48;95772.11;814843;73;26204;-76
2022/03/21 17:14:12;;;;;;;18.45;14.95;;;;;;;6.26;35.53;95769.28;809630;73;27801;-77
2022/03/21 17:15:18;;;;;;;19.32;14.60;;;;;;;6.35;35.46;95772.63;784899;75;26247;-77
2022/03/21 17:16:25;;;;;;;19.07;13.95;;;;;;;6.29;35.42;95773.53;766586;77;26316;-78
2022/03/21 17:17:31;;;;;;;24.12;14.60;;;;;;;6.29;35.45;95772.23;785047;75;26305;-77
2022/03/21 17:24:42;;;;;;;21.90;15.45;;;;;;;6.19;35.66;95774.10;760379;74;26325;-80
2022/03/21 17:25:54;;;;;;;19.77;14.13;;;;;;;6.16;35.74;95778.97;777566;74;26343;-78
2022/03/21 17:26:58;;;;;;;21.25;14.60;;;;;;;6.14;35.73;95781.83;777334;75;26262;-78
2022/03/21 17:28:04;;;;;;;19.87;14.65;;;;;;;6.12;35.82;95782.53;777122;76;26391;-76
2022/03/21 17:29:11;;;;;;;20.02;14.33;;;;;;;6.13;35.76;95776.31;777226;75;26317;-78
2022/03/21 17:30:17;;;;;;;20.55;15.30;;;;;;;6.10;35.84;95778.58;777299;75;26241;-76
2022/03/21 17:31:21;;;;;;;25.02;14.43;;;;;;;6.12;35.87;95781.75;773234;76;26679;-85
2022/03/21 17:34:42;;;;;;;20.97;13.90;;;;;;;6.14;35.96;95780.52;793058;73;26216;-80
2022/03/21 17:35:46;;;;;;;19.02;14.90;;;;;;;6.18;36.00;95775.14;800732;73;26223;-80
2022/03/21 17:36:52;;;;;;;16.95;14.63;;;;;;;6.21;36.02;95786.91;784042;75;26358;-81
2022/03/21 17:37:58;;;;;;;20.52;14.63;;;;;;;6.21;35.95;95779.88;783973;74;26334;-82
2022/03/21 17:39:03;;;;;;;19.45;15.03;;;;;;;6.23;35.97;95783.57;794886;74;26264;-83
2022/03/21 17:40:08;;;;;;;22.58;15.50;;;;;;;6.26;35.97;95784.92;800016;74;26229;-81
2022/03/21 17:41:14;;;;;;;21.20;16.15;;;;;;;6.27;35.96;95786.00;796084;74;26222;-80
2022/03/21 17:45:59;;;;;;;22.32;16.57;;;;;;;6.32;35.98;95785.31;786076;73;26241;-82
2022/03/21 17:47:06;;;;;;;24.43;17.27;;;;;;;6.33;35.95;95786.39;799398;74;26232;-78
2022/03/21 17:48:10;;;;;;;21.82;16.85;;;;;;;6.36;35.83;95788.53;799411;74;26275;-77
2022/03/21 17:49:15;;;;;;;24.77;17.80;;;;;;;6.37;35.79;95789.34;799029;74;26286;-80
2022/03/21 17:50:19;;;;;;;22.52;18.60;;;;;;;6.38;35.87;95783.09;798875;74;26225;-79
2022/03/21 17:55:36;;;;;;;27.58;18.85;;;;;;;6.37;35.86;95788.83;802623;71;26281;-79
2022/03/21 17:56:42;;;;;;;32.53;18.80;;;;;;;6.38;35.93;95788.30;803204;73;26235;-81
2022/03/21 17:57:52;;;;;;;26.25;18.67;;;;;;;6.39;36.03;95793.30;804021;74;26266;-80
2022/03/21 17:58:56;;;;;;;26.42;18.60;;;;;;;6.44;36.05;95785.30;809200;73;26201;-81
2022/03/21 18:00:01;;;;;;;24.32;19.48;;;;;;;6.42;36.11;95793.34;815067;73;26257;-80
2022/03/21 18:01:09;;;;;;;25.62;18.57;;;;;;;6.44;36.08;95797.82;789933;75;26222;-82
2022/03/21 18:04:50;;;;;;;31.42;20.95;;;;;;;6.48;36.12;95790.34;801256;71;26301;-81
2022/03/21 18:05:56;;;;;;;28.00;21.55;;;;;;;6.53;36.14;95796.95;809906;72;26217;-84
2022/03/21 18:07:01;;;;;;;30.85;21.40;;;;;;;6.50;36.04;95792.21;808998;73;26213;-84
2022/03/21 18:10:00;;;;;;;28.45;20.85;;;;;;;6.53;36.07;95791.25;764492;75;26327;-81
2022/03/21 18:11:05;;;;;;;31.82;22.35;;;;;;;6.53;36.20;95787.34;778850;76;26241;-78
2022/03/21 18:15:54;;;;;;;33.58;22.48;;;;;;;6.60;36.01;95784.59;792160;73;26639;-85
2022/03/21 18:17:03;;;;;;;31.10;22.20;;;;;;;6.57;36.13;95791.59;773924;76;26670;-83
2022/03/21 18:18:09;;;;;;;32.10;23.18;;;;;;;6.53;36.17;95790.43;773760;76;26244;-85
2022/03/21 18:20:21;;;;;;;30.10;22.87;;;;;;;6.50;36.23;95795.60;768181;76;26393;-82
2022/03/21 18:25:12;;;;;;;38.35;23.07;;;;;;;6.54;36.37;95786.81;768718;76;26270;-86
2022/03/21 18:26:22;;;;;;;33.42;24.05;;;;;;;6.56;36.32;95783.47;789528;75;26379;-79
2022/03/21 18:27:27;;;;;;;34.00;24.27;;;;;;;6.54;36.36;95780.30;790986;74;26298;-82
2022/03/21 18:28:34;;;;;;;32.88;22.80;;;;;;;6.53;36.39;95787.83;791436;75;26275;-78
2022/03/21 18:29:43;;;;;;;31.27;23.25;;;;;;;6.56;36.36;95792.08;792256;75;26220;-81
2022/03/21 18:30:48;;;;;;;33.33;23.32;;;;;;;6.53;36.28;95782.12;792268;75;26262;-78
2022/03/21 18:34:09;;;;;;;32.83;22.40;;;;;;;6.54;36.35;95786.30;786929;75;26436;-79
2022/03/21 18:35:15;;;;;;;32.58;22.65;;;;;;;6.44;36.42;95790.00;758063;76;26259;-81
2022/03/21 18:36:21;;;;;;;33.40;23.18;;;;;;;6.47;36.41;95796.08;745975;79;26334;-82
2022/03/21 18:37:27;;;;;;;33.50;23.45;;;;;;;6.48;36.38;95793.73;777540;76;26303;-79
2022/03/21 18:38:32;;;;;;;35.33;24.30;;;;;;;6.46;36.38;95793.17;750332;76;26306;-81
2022/03/21 18:39:40;;;;;;;34.50;24.12;;;;;;;6.46;36.43;95791.08;747527;79;26222;-81
2022/03/21 18:40:46;;;;;;;30.55;23.25;;;;;;;6.46;36.49;95789.78;750975;79;26263;-81
2022/03/21 18:47:26;;;;;;;32.45;22.13;;;;;;;6.45;36.43;95798.12;768335;76;26300;-84
2022/03/21 18:48:36;;;;;;;30.43;21.68;;;;;;;6.46;36.41;95798.38;780115;75;26273;-77
2022/03/21 18:49:43;;;;;;;30.48;21.82;;;;;;;6.47;36.36;95806.98;771061;74;26229;-78
2022/03/21 18:50:47;;;;;;;28.30;20.85;;;;;;;6.46;36.34;95798.38;794093;74;26215;-79
2022/03/21 18:54:43;;;;;;;28.20;18.60;;;;;;;6.48;36.38;95801.55;788071;71;26241;-78
2022/03/21 18:55:56;;;;;;;28.77;18.90;;;;;;;6.51;36.28;95800.30;777649;76;26339;-80
2022/03/21 18:57:02;;;;;;;31.95;20.02;;;;;;;6.49;36.13;95790.61;779079;74;26279;-79
2022/03/21 18:58:09;;;;;;;30.48;19.73;;;;;;;6.50;36.20;95792.99;778970;74;26279;-80
2022/03/21 18:59:15;;;;;;;27.27;20.55;;;;;;;6.49;36.18;95799.73;778007;75;26286;-79
2022/03/21 19:00:21;;;;;;;27.40;20.12;;;;;;;6.48;36.20;95795.55;778815;76;26253;-79
2022/03/21 19:04:10;;;;;;;28.20;19.48;;;;;;;6.50;36.27;95800.81;776516;75;26277;-75
2022/03/21 19:05:16;;;;;;;26.33;19.00;;;;;;;6.47;36.31;95803.89;792478;74;26243;-79
2022/03/21 19:06:23;;;;;;;27.90;19.57;;;;;;;6.47;36.43;95799.17;792419;75;26235;-77
2022/03/21 19:07:32;;;;;;;29.60;20.17;;;;;;;6.51;36.46;95802.91;779945;75;26245;-78
2022/03/21 19:08:41;;;;;;;32.60;20.68;;;;;;;6.53;36.52;95801.67;781372;75;26714;-77
2022/03/21 19:09:48;;;;;;;30.72;21.33;;;;;;;6.58;36.48;95799.67;792681;74;26688;-77
2022/03/21 19:10:54;;;;;;;29.10;21.97;;;;;;;6.62;36.44;95804.72;779736;76;26242;-77
2022/03/21 19:16:17;;;;;;;34.03;20.27;;;;;;;6.69;36.36;95800.18;785776;74;26242;-77
2022/03/21 19:17:23;;;;;;;28.25;21.40;;;;;;;6.73;36.29;95802.61;777235;75;26814;-77
2022/03/21 19:18:28;;;;;;;29.55;20.82;;;;;;;6.71;36.35;95798.13;780537;76;26289;-78
2022/03/21 19:19:38;;;;;;;29.82;21.68;;;;;;;6.74;36.25;95804.70;794012;74;26234;-76
2022/03/21 19:20:44;;;;;;;29.18;21.50;;;;;;;6.74;36.19;95796.36;793853;74;26289;-76
2022/03/21 19:24:01;;;;;;;31.25;21.45;;;;;;;6.75;36.30;95795.83;794580;74;26267;-78
2022/03/21 19:25:08;;;;;;;30.37;22.98;;;;;;;6.75;36.39;95803.17;793190;74;26651;-80
2022/03/21 19:26:13;;;;;;;31.77;23.35;;;;;;;6.75;36.35;95797.95;793139;75;26348;-79
2022/03/21 19:27:17;;;;;;;33.98;23.12;;;;;;;6.72;36.43;95796.31;793238;75;26234;-82
2022/03/21 19:28:22;;;;;;;29.82;21.42;;;;;;;6.73;36.40;95797.39;793165;75;26297;-79
2022/03/21 19:29:29;;;;;;;31.62;24.52;;;;;;;6.75;36.39;95803.17;793315;74;26238;-82
2022/03/21 19:30:34;;;;;;;33.23;24.02;;;;;;;6.73;36.44;95803.91;793408;75;26703;-85
2022/03/21 19:37:22;;;;;;;35.43;22.85;;;;;;;6.68;36.73;95808.23;787593;74;26313;-76
2022/03/21 19:38:29;;;;;;;36.13;24.27;;;;;;;6.60;36.60;95797.63;798343;74;26245;-79
2022/03/21 19:39:33;;;;;;;39.50;25.32;;;;;;;6.59;36.63;95791.63;798655;74;26293;-78
2022/03/21 19:40:38;;;;;;;39.53;25.75;;;;;;;6.62;36.64;95798.98;799955;74;26382;-79
2022/03/21 19:43:34;;;;;;;40.50;25.32;;;;;;;6.64;36.49;95796.67;798849;74;26646;-76
2022/03/21 19:44:44;;;;;;;32.70;25.23;;;;;;;6.64;36.52;95797.45;783628;74;26254;-83
2022/03/21 19:45:50;;;;;;;36.53;26.00;;;;;;;6.67;36.48;95803.53;767945;77;26256;-82
2022/03/21 19:46:57;;;;;;;35.00;26.05;;;;;;;6.70;36.48;95802.27;781178;76;26284;-77
2022/03/21 19:48:06;;;;;;;40.33;27.37;;;;;;;6.70;36.37;95793.92;780870;76;26229;-78
2022/03/21 19:49:11;;;;;;;36.20;24.85;;;;;;;6.70;36.42;95803.05;780937;76;26756;-80
2022/03/21 19:50:21;;;;;;;35.17;24.05;;;;;;;6.70;36.37;95801.75;781041;76;26288;-77
2022/03/21 19:55:18;;;;;;;39.15;25.17;;;;;;;6.72;36.42;95791.09;790175;74;26180;-78
2022/03/21 19:56:37;;;;;;;36.45;23.10;;;;;;;6.70;36.44;95790.02;799858;74;26224;-79
2022/03/21 19:57:38;;;;;;;36.42;25.35;;;;;;;6.69;36.48;95796.27;800356;73;26228;-80
2022/03/21 19:58:50;;;;;;;37.40;24.82;;;;;;;6.70;36.38;95795.75;802977;74;26208;-78
2022/03/21 19:59:57;;;;;;;35.65;23.83;;;;;;;6.73;36.30;95799.19;801043;74;26196;-78
2022/03/21 20:05:23;;;;;;;30.35;21.95;;;;;;;6.66;36.02;95795.92;804579;74;26245;-79
2022/03/21 20:06:31;;;;;;;34.65;22.20;;;;;;;6.64;36.02;95790.15;785233;75;26793;-81
2022/03/21 20:07:43;;;;;;;32.65;21.93;;;;;;;6.63;35.98;95795.88;783727;75;26320;-82
2022/03/21 20:08:51;;;;;;;33.42;22.75;;;;;;;6.62;36.00;95794.28;782448;75;26236;-82
2022/03/21 20:14:47;;;;;;;38.00;25.90;;;;;;;6.62;36.66;95806.80;782321;73;24457;-80
2022/03/21 20:15:52;;;;;;;36.30;25.95;;;;;;;6.62;36.77;95800.80;781028;76;26260;-78
2022/03/21 20:17:01;;;;;;;40.03;27.82;;;;;;;6.62;36.97;95800.80;781002;76;26685;-80
2022/03/21 20:18:08;;;;;;;45.15;30.05;;;;;;;6.62;37.12;95802.89;781346;76;26319;-80
2022/03/21 20:19:14;;;;;;;49.27;31.77;;;;;;;6.64;37.28;95800.06;780866;76;26240;-78
2022/03/21 20:20:20;;;;;;;45.92;32.50;;;;;;;6.64;37.36;95799.28;780990;76;26244;-78
2022/03/21 20:29:52;;;;;;;64.80;41.98;;;;;;;6.59;37.93;95808.58;762051;77;26303;-80
2022/03/21 20:34:28;;;;;;;58.05;39.00;;;;;;;6.51;37.92;95806.33;744912;79;26214;-78
2022/03/21 20:35:35;;;;;;;62.98;40.00;;;;;;;6.42;37.93;95790.22;765450;77;26694;-79
2022/03/21 20:36:43;;;;;;;53.25;37.20;;;;;;;6.50;37.97;95803.42;763506;77;26295;-79
2022/03/21 20:37:58;;;;;;;59.27;37.67;;;;;;;6.49;38.00;95800.55;762795;78;26292;-78
2022/03/21 20:39:08;;;;;;;52.40;37.58;;;;;;;6.50;38.04;95796.13;762892;78;26342;-80
2022/03/21 20:40:12;;;;;;;57.13;37.65;;;;;;;6.50;38.02;95797.42;762827;78;26242;-79
2022/03/21 20:47:12;;;;;;;42.70;29.67;;;;;;;6.44;37.75;95796.52;781650;74;26259;-79
2022/03/21 20:48:26;;;;;;;41.18;28.83;;;;;;;6.44;37.63;95795.73;776312;76;26335;-79
2022/03/21 20:49:36;;;;;;;41.92;29.95;;;;;;;6.42;37.79;95799.34;776150;76;26230;-79
2022/03/21 20:58:14;;;;;;;48.58;31.37;;;;;;;6.35;38.44;95797.38;775815;76;26177;-80
2022/03/21 20:59:22;;;;;;;48.15;32.80;;;;;;;6.31;38.59;95796.77;760278;78;26268;-79
2022/03/21 21:00:32;;;;;;;57.67;34.38;;;;;;;6.27;38.67;95804.25;746044;77;26777;-78
2022/03/21 21:03:30;;;;;;;48.25;33.08;;;;;;;6.23;38.93;95803.63;746570;78;26683;-80
2022/03/21 21:04:38;;;;;;;50.58;33.90;;;;;;;6.22;39.25;95802.81;765017;77;26263;-78
2022/03/21 21:05:43;;;;;;;50.80;31.90;;;;;;;6.19;39.06;95798.86;765047;77;26314;-79
2022/03/21 21:06:49;;;;;;;45.73;32.75;;;;;;;6.18;39.16;95805.59;764934;77;26806;-78
2022/03/21 21:07:55;;;;;;;48.70;32.42;;;;;;;6.16;39.25;95794.61;764952;77;26826;-79
2022/03/21 21:09:00;;;;;;;47.55;33.60;;;;;;;6.17;39.25;95802.20;765001;77;26786;-78
2022/03/21 21:13:43;;;;;;;54.75;34.05;;;;;;;6.16;39.17;95805.84;760360;77;26216;-79
2022/03/21 21:24:27;;;;;;;54.42;34.85;;;;;;;6.04;40.32;95799.81;779418;74;26300;-79
2022/03/21 21:25:34;;;;;;;60.30;37.25;;;;;;;6.00;40.37;95802.58;788218;75;26319;-79
2022/03/21 21:26:39;;;;;;;57.88;38.75;;;;;;;5.99;40.41;95800.50;788273;75;26292;-79
2022/03/21 21:27:44;;;;;;;54.93;38.75;;;;;;;6.00;40.57;95801.28;788362;75;26300;-79
2022/03/21 21:28:51;;;;;;;58.45;38.80;;;;;;;6.00;40.75;95802.58;788394;74;26326;-79
2022/03/21 21:29:56;;;;;;;59.13;40.43;;;;;;;6.02;40.93;95799.24;788326;75;26230;-79
2022/03/21 21:33:19;;;;;;;61.90;38.15;;;;;;;6.01;41.07;95792.46;813596;72;26222;-78
2022/03/21 21:34:27;;;;;;;67.97;40.17;;;;;;;5.99;40.99;95795.80;813502;71;26268;-80
2022/03/21 21:35:39;;;;;;;56.58;39.10;;;;;;;5.95;40.92;95794.15;816054;73;26272;-79
2022/03/21 21:36:45;;;;;;;59.45;38.75;;;;;;;5.93;41.01;95791.47;814546;72;26218;-80
2022/03/21 21:37:52;;;;;;;59.55;39.15;;;;;;;5.91;41.10;95798.19;814472;73;26748;-79
2022/03/21 21:39:00;;;;;;;61.42;38.98;;;;;;;5.89;41.16;95790.33;814297;73;26652;-80
2022/03/21 21:40:11;;;;;;;53.30;36.77;;;;;;;5.88;41.04;95795.23;814319;73;26319;-80
2022/03/21 21:43:37;;;;;;;54.60;33.90;;;;;;;5.84;41.14;95792.31;766108;74;26239;-79
2022/03/21 21:44:42;;;;;;;49.05;32.25;;;;;;;5.81;40.87;95790.93;765334;75;26268;-79
2022/03/21 21:49:14;;;;;;;46.50;31.30;;;;;;;5.81;40.60;95785.72;775236;76;26203;-80
2022/03/21 21:50:22;;;;;;;48.55;30.75;;;;;;;5.82;40.65;95786.53;775186;76;26204;-80
2022/03/21 21:55:36;;;;;;;45.48;29.55;;;;;;;5.81;40.36;95774.52;751980;77;26211;-79
2022/03/21 21:56:44;;;;;;;46.53;29.25;;;;;;;5.76;40.41;95777.02;763390;77;26322;-79
2022/03/21 21:57:49;;;;;;;45.73;29.27;;;;;;;5.73;40.67;95780.06;763419;77;26323;-80
2022/03/21 21:58:58;;;;;;;40.65;28.75;;;;;;;5.69;40.86;95777.10;763357;77;26760;-80
2022/03/21 22:09:45;;;;;;;60.73;30.75;;;;;;;5.54;41.35;95769.73;777664;76;26186;-80
2022/03/21 22:14:16;;;;;;;54.35;34.67;;;;;;;5.51;41.99;95772.77;809958;72;26132;-79
2022/03/21 22:15:20;;;;;;;57.65;36.13;;;;;;;5.49;42.26;95768.30;796284;74;26311;-79
2022/03/21 22:16:27;;;;;;;51.42;35.33;;;;;;;5.50;42.42;95762.60;796371;73;26233;-78
2022/03/21 22:17:33;;;;;;;51.42;34.27;;;;;;;5.53;42.46;95766.83;808000;73;26215;-78
2022/03/21 22:18:39;;;;;;;44.08;29.23;;;;;;;5.56;41.61;95763.01;807339;73;26205;-79
2022/03/21 22:19:45;;;;;;;41.05;29.02;;;;;;;5.61;41.05;95763.11;807276;73;26220;-80
2022/03/21 22:23:08;;;;;;;54.38;34.38;;;;;;;5.66;41.59;95760.64;752395;78;26294;-81
2022/03/21 22:24:12;;;;;;;58.63;34.88;;;;;;;5.65;42.19;95757.74;767601;77;26305;-79
2022/03/21 22:25:17;;;;;;;50.45;35.28;;;;;;;5.65;42.30;95756.44;754389;78;26262;-78
2022/03/21 22:26:20;;;;;;;59.53;36.05;;;;;;;5.65;42.41;95762.95;754123;79;26262;-79
2022/03/21 22:27:26;;;;;;;60.63;38.20;;;;;;;5.63;42.54;95756.66;754658;78;26330;-80
2022/03/21 22:28:38;;;;;;;62.60;40.73;;;;;;;5.63;42.68;95763.16;755022;77;26257;-79
2022/03/21 22:29:46;;;;;;;71.22;42.75;;;;;;;5.60;42.82;95761.02;755083;78;26258;-79
2022/03/21 22:34:44;;;;;;;68.28;43.17;;;;;;;5.55;42.91;95762.70;806802;71;26319;-80
2022/03/21 22:35:52;;;;;;;71.82;44.83;;;;;;;5.49;42.85;95763.09;796527;74;26237;-80
2022/03/21 22:36:57;;;;;;;70.12;43.83;;;;;;;5.48;42.89;95763.33;796602;74;26387;-78
2022/03/21 22:38:01;;;;;;;62.05;43.20;;;;;;;5.44;42.79;95768.70;796691;74;26240;-79
2022/03/21 22:39:09;;;;;;;67.50;42.62;;;;;;;5.41;42.75;95766.83;796484;74;26229;-78
2022/03/21 22:49:25;;;;;;;67.53;41.30;;;;;;;5.31;42.62;95789.18;816763;72;26678;-79
2022/03/21 22:55:44;;;;;;;60.48;38.70;;;;;;;5.22;42.69;95781.69;795762;71;26264;-80